Kennedale's Hourly Summary for Monday, March 13, 2017
Hour Temp
(f)
RH
(%)
Solar Rad.
(MJ/m2)
Rainfall
(in)
Wind
(mph)
3/13/2017 12:00 AM 48 85 0 0 5.74
3/13/2017 1:00 AM 47 86 0 0 2.07
3/13/2017 2:00 AM 47 91 0 0 4.36
3/13/2017 3:00 AM 47 93 0 0 4.31
3/13/2017 4:00 AM 48 91 0 0.01 4.7
3/13/2017 5:00 AM 47 95 0 0.11 4.2
3/13/2017 6:00 AM 48 97 0 0 4.81
3/13/2017 7:00 AM 48 95 0 0 6.93
3/13/2017 8:00 AM 48 93 0.04 0 4.7
3/13/2017 9:00 AM 49 92 0.18 0 3.75
3/13/2017 10:00 AM 51 81 0.81 0 6.83
3/13/2017 11:00 AM 55 68 2.04 0 10.01
3/13/2017 12:00 PM 56 64 2.26 0 11.07
3/13/2017 1:00 PM 58 60 1.95 0 10.24
3/13/2017 2:00 PM 59 52 2.75 0 11.18
3/13/2017 3:00 PM 62 43 2.5 0 12.3
3/13/2017 4:00 PM 63 35 2.06 0 13.81
3/13/2017 5:00 PM 62 33 1.4 0 14.1
3/13/2017 6:00 PM 61 34 0.8 0 11.96
3/13/2017 7:00 PM 57 35 0.09 0 10.74
3/13/2017 8:00 PM 54 34 0 0 8.95
3/13/2017 9:00 PM 51 33 0 0 9.17
3/13/2017 10:00 PM 49 35 0 0 6.66
3/13/2017 11:00 PM 47 38 0 0 6.77
Data Summary 52 65 16.88 0.12 7.89